Weather at Brantford Municipal Airport

Public forecast

Using degrees Celsius for public forecast. Weather courtesy of forecast.io.

Closest aviation weather report (METAR) to Brantford Municipal Airport

Closest report is John C. Munro Hamilton International Airport, 18.0 nm (33.4 km) E. Retrieved 2020/09/20 03:00 UTC (52 minutes ago):

CYHM 200300Z 06004KT 15SM FEW120 SCT200 06/M01 A3042 RMK AC2CI1 SLP307

Closest aviation forecast (TAF) to Brantford Municipal Airport

Closest forecast is John C. Munro Hamilton International Airport, 18.0 nm (33.4 km) E. Retrieved 2020-09-20 00:45 UTC (3 hours ago):

TAF TAF CYHM 192343Z 2000/2024 09008KT P6SM FEW050 SCT170 FM200300 08009KT P6SM OVC100 BECMG 2005/2007 04005KT FM200900 01005KT P6SM FEW080 BECMG 2012/2014 08010KT RMK NXT FCST BY 200600Z